Time;durP1;ratioP1;P1;durP2;ratioP2;P2;SDS_P1;SDS_P2;PMS_P1;PMS_P2;Temp;Humidity;BMP_temperature;BMP_pressure;BME280_temperature;BME280_humidity;BME280_pressure;Samples;Min_cycle;Max_cycle;Signal;HPM_P1;HPM_P2
2022/09/02 00:00:45;;;;;;;3.75;3.55;;;;;;;15.23;87.42;95638.94;5016303;28;20029;-60
2022/09/02 00:03:11;;;;;;;10.23;3.70;;;;;;;15.20;86.59;95642.72;5011609;28;20028;-60
2022/09/02 00:05:36;;;;;;;3.60;3.40;;;;;;;15.19;86.38;95633.13;5015860;28;20037;-60
2022/09/02 00:08:03;;;;;;;3.75;3.42;;;;;;;15.20;85.87;95629.47;5009584;28;20059;-59
2022/09/02 00:10:28;;;;;;;7.43;3.20;;;;;;;15.20;85.95;95631.31;5009190;28;20113;-60
2022/09/02 00:12:54;;;;;;;4.10;3.80;;;;;;;15.15;89.16;95634.47;5009369;28;20144;-60
2022/09/02 00:15:19;;;;;;;7.10;3.38;;;;;;;15.07;89.07;95627.38;5009949;28;20079;-59
2022/09/02 00:17:45;;;;;;;4.03;3.70;;;;;;;15.02;89.97;95627.06;5010128;28;20018;-59
2022/09/02 00:20:10;;;;;;;3.58;3.38;;;;;;;14.97;89.94;95626.75;5009120;28;20029;-60
2022/09/02 00:22:36;;;;;;;3.80;3.50;;;;;;;14.92;89.84;95623.78;5020300;28;20030;-60
2022/09/02 00:25:01;;;;;;;3.42;3.22;;;;;;;14.93;89.17;95613.00;5019026;28;20041;-60
2022/09/02 00:27:26;;;;;;;3.83;3.53;;;;;;;14.96;90.01;95620.63;5004690;28;20065;-59
2022/09/02 00:29:52;;;;;;;4.15;3.58;;;;;;;14.98;89.15;95615.16;5009230;28;20030;-59
2022/09/02 00:32:18;;;;;;;3.65;3.42;;;;;;;15.01;88.27;95617.47;5021846;28;20025;-59
2022/09/02 00:34:44;;;;;;;4.03;3.65;;;;;;;15.02;88.27;95619.13;5009287;28;20017;-59
2022/09/02 00:37:09;;;;;;;4.45;4.15;;;;;;;15.02;88.58;95622.59;5011334;28;20033;-60
2022/09/02 00:39:34;;;;;;;4.60;3.90;;;;;;;15.01;88.39;95626.22;5009375;28;20401;-59
2022/09/02 00:42:00;;;;;;;3.65;3.33;;;;;;;15.01;88.10;95626.22;5008726;28;20105;-60
2022/09/02 00:44:26;;;;;;;3.90;3.60;;;;;;;15.01;88.62;95626.22;5009791;28;20034;-60
2022/09/02 00:46:51;;;;;;;4.85;4.00;;;;;;;15.04;87.96;95627.72;5019413;28;20053;-59
2022/09/02 00:49:17;;;;;;;3.72;3.42;;;;;;;14.99;88.85;95625.56;5008868;28;20037;-59
2022/09/02 00:51:46;;;;;;;3.65;3.35;;;;;;;14.89;89.90;95631.06;5008646;28;20646;-59
2022/09/02 00:54:14;;;;;;;4.15;3.85;;;;;;;14.83;90.71;95626.47;5021108;28;20025;-60
2022/09/02 00:56:42;;;;;;;4.55;4.25;;;;;;;14.86;89.69;95635.91;5010615;28;20396;-60
2022/09/02 00:59:12;;;;;;;7.63;3.50;;;;;;;14.88;88.80;95632.06;5008715;28;20512;-60
2022/09/02 01:01:38;;;;;;;4.35;3.95;;;;;;;14.86;88.44;95626.13;5008624;28;20010;-59
2022/09/02 01:04:04;;;;;;;4.47;3.67;;;;;;;14.82;90.01;95622.16;5008520;28;20620;-59
2022/09/02 01:06:32;;;;;;;5.45;3.65;;;;;;;14.77;90.41;95624.50;5008661;28;20018;-60
2022/09/02 01:09:07;;;;;;;4.35;3.85;;;;;;;14.73;91.40;95623.19;5008820;28;20021;-60
2022/09/02 01:11:40;;;;;;;4.50;4.20;;;;;;;14.74;90.86;95628.31;5010506;28;20115;-59
2022/09/02 01:14:06;;;;;;;3.92;3.55;;;;;;;14.77;91.18;95621.00;5012887;28;20038;-60
2022/09/02 01:16:39;;;;;;;3.83;3.53;;;;;;;14.72;92.36;95626.84;5008723;28;20029;-60
2022/09/02 01:19:11;;;;;;;4.72;3.70;;;;;;;14.75;92.03;95629.16;5018952;28;20034;-59
2022/09/02 01:21:36;;;;;;;3.85;3.65;;;;;;;14.76;91.08;95628.16;5016880;28;20032;-60
2022/09/02 01:24:03;;;;;;;3.88;3.58;;;;;;;14.79;90.26;95630.47;5020836;28;20029;-60
2022/09/02 01:26:28;;;;;;;3.67;3.38;;;;;;;14.77;91.10;95616.56;5011939;28;20435;-60
2022/09/02 01:28:54;;;;;;;3.88;3.33;;;;;;;14.73;91.71;95620.53;5028184;28;20025;-60
2022/09/02 01:31:19;;;;;;;5.40;3.80;;;;;;;14.77;91.11;95619.19;5023535;28;20104;-60
2022/09/02 01:33:44;;;;;;;4.25;3.78;;;;;;;14.79;90.94;95622.50;5011705;28;20014;-60
2022/09/02 01:36:10;;;;;;;7.78;3.65;;;;;;;14.78;91.11;95617.38;5021155;28;20148;-60
2022/09/02 01:38:35;;;;;;;4.10;3.70;;;;;;;14.72;92.52;95626.84;5009817;28;20022;-60
2022/09/02 01:41:01;;;;;;;11.70;4.18;;;;;;;14.68;93.29;95620.16;5009698;28;20109;-59
2022/09/02 01:43:28;;;;;;;5.35;4.30;;;;;;;14.69;92.24;95632.41;5013369;28;20029;-59
2022/09/02 01:45:56;;;;;;;6.47;3.75;;;;;;;14.70;91.70;95626.97;5016725;28;20424;-60
2022/09/02 01:48:21;;;;;;;5.00;3.53;;;;;;;14.73;91.51;95625.84;5009129;28;20050;-60
2022/09/02 01:50:50;;;;;;;6.07;5.10;;;;;;;14.79;91.70;95624.31;5009340;28;20029;-60
2022/09/02 01:53:16;;;;;;;5.30;4.80;;;;;;;14.77;93.04;95618.38;5013687;28;20025;-60
2022/09/02 01:55:41;;;;;;;4.93;4.40;;;;;;;14.76;92.04;95617.56;5009560;28;20053;-60
2022/09/02 01:58:07;;;;;;;4.70;4.30;;;;;;;14.79;92.19;95624.31;5022199;28;20026;-60
2022/09/02 02:00:33;;;;;;;4.45;3.80;;;;;;;14.75;92.87;95621.19;5014085;28;20026;-60
2022/09/02 02:02:59;;;;;;;5.10;3.92;;;;;;;14.74;92.15;95617.72;5016887;28;20061;-59
2022/09/02 02:05:24;;;;;;;4.35;3.70;;;;;;;14.71;93.50;95611.94;5011373;28;20030;-60
2022/09/02 02:07:50;;;;;;;3.88;3.60;;;;;;;14.69;93.31;95619.16;5020215;28;20110;-60
2022/09/02 02:10:18;;;;;;;7.18;3.63;;;;;;;14.75;92.79;95618.53;5020902;28;20033;-60
2022/09/02 02:12:44;;;;;;;3.95;3.55;;;;;;;14.78;92.27;95622.66;5013181;28;20033;-60
2022/09/02 02:15:14;;;;;;;4.60;3.20;;;;;;;14.81;91.98;95623.16;5013162;28;20022;-60
2022/09/02 02:17:39;;;;;;;4.70;3.50;;;;;;;14.85;91.92;95618.34;5013195;28;20092;-60
2022/09/02 02:20:07;;;;;;;3.78;3.47;;;;;;;14.82;91.87;95618.69;5013164;28;20034;-60
2022/09/02 02:22:32;;;;;;;3.40;3.20;;;;;;;14.79;nan;95614.56;5017398;28;20050;-60
2022/09/02 02:24:58;;;;;;;3.53;3.22;;;;;;;14.77;92.09;95613.06;4999934;28;20072;-59
2022/09/02 02:27:23;;;;;;;4.10;3.70;;;;;;;14.73;91.80;95604.66;5016581;28;20026;-60
2022/09/02 02:29:49;;;;;;;3.97;3.67;;;;;;;14.68;93.20;95609.56;5013572;28;20014;-60
2022/09/02 02:32:17;;;;;;;3.38;3.10;;;;;;;14.67;92.13;95610.56;5017052;28;20476;-60
2022/09/02 02:34:43;;;;;;;4.10;3.35;;;;;;;14.67;91.53;95616.72;5017094;28;20025;-60
2022/09/02 02:37:11;;;;;;;12.50;3.35;;;;;;;14.66;92.44;95606.28;5013185;28;20452;-60
2022/09/02 02:39:36;;;;;;;3.80;3.38;;;;;;;14.66;92.16;95606.28;5013072;28;20017;-60
2022/09/02 02:42:02;;;;;;;3.72;3.42;;;;;;;14.66;92.46;95604.47;5014631;28;20026;-59
2022/09/02 02:44:28;;;;;;;5.07;3.45;;;;;;;14.63;93.94;95609.25;5021808;28;20559;-60
2022/09/02 02:46:53;;;;;;;4.97;3.80;;;;;;;14.64;92.86;95603.81;5017315;28;20046;-59
2022/09/02 02:49:18;;;;;;;4.95;3.53;;;;;;;14.65;93.61;95604.63;5012388;28;20053;-59
2022/09/02 02:51:44;;;;;;;4.43;3.60;;;;;;;14.59;93.91;95606.16;5015470;28;20035;-60
2022/09/02 02:54:13;;;;;;;4.13;3.78;;;;;;;14.57;93.60;95600.16;5021723;28;20471;-60
2022/09/02 02:56:38;;;;;;;3.60;3.30;;;;;;;14.56;93.25;95601.16;5012717;28;20490;-60
2022/09/02 02:59:04;;;;;;;3.17;2.88;;;;;;;14.56;93.15;95599.34;5014470;28;20101;-59
2022/09/02 03:01:30;;;;;;;4.47;3.67;;;;;;;14.53;92.90;95590.91;5021192;28;20477;-60
2022/09/02 03:03:56;;;;;;;5.40;4.00;;;;;;;14.47;94.62;95598.53;5013770;28;20030;-60
2022/09/02 03:06:22;;;;;;;4.90;3.72;;;;;;;14.45;93.82;95597.03;5024609;28;20546;-60
2022/09/02 03:08:47;;;;;;;3.97;3.67;;;;;;;14.43;93.79;95599.03;5018727;28;20108;-60
2022/09/02 03:11:14;;;;;;;4.18;3.13;;;;;;;14.43;93.71;95596.38;5012016;28;20029;-60
2022/09/02 03:13:40;;;;;;;4.18;3.78;;;;;;;14.38;95.09;95590.78;5012212;28;20100;-60
2022/09/02 03:16:05;;;;;;;4.00;3.53;;;;;;;14.32;95.23;95592.25;5011274;28;20112;-60
2022/09/02 03:18:32;;;;;;;3.97;3.78;;;;;;;14.36;94.32;95600.72;5017360;28;20382;-59
2022/09/02 03:20:57;;;;;;;4.13;3.83;;;;;;;14.34;94.93;95603.50;5011886;28;20060;-59
2022/09/02 03:23:23;;;;;;;5.20;3.70;;;;;;;14.35;94.59;95607.00;5011294;28;20493;-60
2022/09/02 03:25:48;;;;;;;4.65;3.58;;;;;;;14.32;96.15;95606.34;5025467;28;20104;-60
2022/09/02 03:28:14;;;;;;;3.72;3.42;;;;;;;14.28;96.08;95601.53;5012375;28;20030;-60
2022/09/02 03:30:41;;;;;;;4.30;3.92;;;;;;;14.28;95.20;95597.09;5021953;28;20095;-59
2022/09/02 03:33:06;;;;;;;3.58;3.38;;;;;;;14.28;95.40;95598.91;5011837;28;20060;-60
2022/09/02 03:35:36;;;;;;;3.60;3.30;;;;;;;14.28;95.64;95597.09;5023125;28;20465;-60
2022/09/02 03:38:01;;;;;;;3.97;3.55;;;;;;;14.29;95.46;95597.91;5024190;28;20022;-60
2022/09/02 03:40:27;;;;;;;3.78;3.53;;;;;;;14.32;95.64;95592.25;5023317;28;20065;-60
2022/09/02 03:42:53;;;;;;;3.92;3.63;;;;;;;14.29;95.32;95596.09;5011075;28;20014;-60
2022/09/02 03:45:19;;;;;;;3.88;3.60;;;;;;;14.30;95.02;95595.09;5011262;28;20590;-60
2022/09/02 03:47:53;;;;;;;3.78;3.55;;;;;;;14.31;94.75;95596.75;5011278;28;20251;-60
2022/09/02 03:50:25;;;;;;;3.95;3.65;;;;;;;14.36;94.55;95596.22;5020396;28;20029;-60
2022/09/02 03:52:51;;;;;;;3.90;3.58;;;;;;;14.35;95.09;95601.72;5016691;28;20093;-60
2022/09/02 03:55:17;;;;;;;5.43;3.22;;;;;;;14.30;95.84;95599.56;5010988;28;20109;-60
2022/09/02 03:57:44;;;;;;;3.65;3.45;;;;;;;14.28;95.95;95594.44;5011632;28;20105;-60
2022/09/02 04:00:11;;;;;;;4.18;3.63;;;;;;;14.26;95.99;95604.38;5011586;28;20025;-60
2022/09/02 04:02:36;;;;;;;3.95;3.60;;;;;;;14.24;96.84;95590.44;5023044;28;20076;-60
2022/09/02 04:05:03;;;;;;;4.85;3.53;;;;;;;14.27;95.56;95594.59;5010749;28;20026;-60
2022/09/02 04:07:28;;;;;;;5.57;3.72;;;;;;;14.32;95.31;95589.63;5018252;28;20488;-60
2022/09/02 04:09:55;;;;;;;5.60;3.78;;;;;;;14.32;94.87;95587.81;5016276;28;20064;-60
2022/09/02 04:12:21;;;;;;;4.88;4.50;;;;;;;14.31;96.39;95593.25;5006247;28;20030;-60
2022/09/02 04:14:46;;;;;;;4.82;3.67;;;;;;;14.32;96.04;95585.16;5018795;28;20029;-60
2022/09/02 04:17:11;;;;;;;7.65;3.97;;;;;;;14.33;95.97;95592.09;5029478;28;20087;-61
2022/09/02 04:19:38;;;;;;;3.58;3.38;;;;;;;14.37;95.37;95589.13;5016302;28;20040;-60
2022/09/02 04:22:03;;;;;;;3.80;3.50;;;;;;;14.43;95.27;95588.44;5016496;28;20056;-60
2022/09/02 04:24:30;;;;;;;3.88;3.67;;;;;;;14.45;96.58;95587.28;5010469;28;20069;-60
2022/09/02 04:26:55;;;;;;;4.30;4.00;;;;;;;14.46;95.74;95593.41;5010830;28;20050;-60
2022/09/02 04:29:20;;;;;;;3.90;3.70;;;;;;;14.50;96.20;95600.03;5009971;28;20061;-60
2022/09/02 04:31:46;;;;;;;4.22;3.90;;;;;;;14.55;96.13;95604.81;5025039;28;20030;-60
2022/09/02 04:34:11;;;;;;;4.57;3.45;;;;;;;14.56;95.43;95606.47;5017869;28;20037;-60
2022/09/02 04:36:36;;;;;;;3.55;3.30;;;;;;;14.59;94.46;95603.50;5025312;28;20029;-60
2022/09/02 04:39:03;;;;;;;6.22;3.80;;;;;;;14.61;94.98;95607.59;5025382;28;20037;-60
2022/09/02 04:41:29;;;;;;;3.78;3.40;;;;;;;14.64;94.16;95608.25;5022975;28;20396;-60
2022/09/02 04:43:57;;;;;;;5.63;3.65;;;;;;;14.66;94.40;95604.47;5018816;28;20511;-60
2022/09/02 04:46:23;;;;;;;4.70;3.85;;;;;;;14.66;95.83;95598.31;5019864;28;20029;-60
2022/09/02 04:48:49;;;;;;;4.35;3.95;;;;;;;14.63;95.53;95596.00;5021564;28;20038;-61
2022/09/02 04:51:19;;;;;;;4.20;3.72;;;;;;;14.61;95.66;95593.56;5020953;28;20179;-60
2022/09/02 04:53:46;;;;;;;4.93;4.00;;;;;;;14.58;94.96;95591.22;5024742;28;20488;-60
2022/09/02 04:56:15;;;;;;;3.80;3.60;;;;;;;14.59;94.32;95599.00;5019931;28;20120;-61
2022/09/02 04:58:43;;;;;;;4.00;3.70;;;;;;;14.61;94.36;95590.91;5020124;28;20664;-60
2022/09/02 05:01:14;;;;;;;4.20;3.90;;;;;;;14.60;94.49;95600.66;5023746;28;20029;-60
2022/09/02 05:03:40;;;;;;;3.83;3.63;;;;;;;14.60;94.23;95591.91;5017392;28;20029;-60
2022/09/02 05:06:07;;;;;;;4.55;4.07;;;;;;;14.61;93.95;95594.38;5023838;28;20033;-60
2022/09/02 05:08:35;;;;;;;5.43;4.10;;;;;;;14.61;93.62;95597.00;5021703;28;20033;-60
2022/09/02 05:11:04;;;;;;;5.38;4.25;;;;;;;14.56;95.35;95594.06;5022761;28;20022;-59
2022/09/02 05:13:30;;;;;;;6.75;3.83;;;;;;;14.49;95.73;95594.88;5021253;28;20022;-60
2022/09/02 05:15:55;;;;;;;6.50;3.80;;;;;;;14.49;95.42;95595.72;5017488;28;20563;-60
2022/09/02 05:18:21;;;;;;;3.85;3.65;;;;;;;14.47;95.46;95597.69;5023776;28;20058;-59
2022/09/02 05:20:46;;;;;;;4.32;3.92;;;;;;;14.44;95.09;95603.34;5025603;28;20026;-59
2022/09/02 05:23:12;;;;;;;6.65;4.80;;;;;;;14.42;96.05;95597.38;5019904;28;20029;-59
2022/09/02 05:25:39;;;;;;;4.10;3.70;;;;;;;14.39;95.78;95601.22;5013883;28;20481;-59
2022/09/02 05:28:09;;;;;;;3.65;3.33;;;;;;;14.34;96.49;95598.22;5025077;28;20043;-60
2022/09/02 05:30:39;;;;;;;5.28;4.35;;;;;;;14.32;96.69;95594.91;5022738;28;20045;-60
2022/09/02 05:33:05;;;;;;;4.47;4.05;;;;;;;14.35;96.67;95607.00;5023697;28;20045;-59
2022/09/02 05:35:31;;;;;;;4.30;3.92;;;;;;;14.37;96.15;95599.72;5023622;28;20036;-60
2022/09/02 05:37:57;;;;;;;7.18;4.10;;;;;;;14.41;95.85;95604.50;5020610;28;20034;-60
2022/09/02 05:40:22;;;;;;;4.30;4.00;;;;;;;14.46;97.23;95601.34;5027170;28;20424;-60
2022/09/02 05:42:48;;;;;;;4.30;4.00;;;;;;;14.54;96.88;95606.66;5026392;28;20025;-60
2022/09/02 05:45:13;;;;;;;5.70;3.90;;;;;;;14.58;96.74;95607.94;5031069;28;20041;-60
2022/09/02 05:47:39;;;;;;;4.38;3.78;;;;;;;14.66;95.27;95601.81;5028119;28;20044;-59
2022/09/02 05:50:05;;;;;;;4.45;4.15;;;;;;;14.75;95.23;95594.69;5024079;28;20022;-60
2022/09/02 05:52:31;;;;;;;4.25;3.92;;;;;;;14.79;95.02;95587.22;5017960;28;20014;-60
2022/09/02 05:54:57;;;;;;;4.60;4.20;;;;;;;14.94;94.46;95582.06;5025347;28;20083;-60
2022/09/02 05:57:23;;;;;;;4.20;3.80;;;;;;;15.06;93.66;95591.25;5027460;28;20392;-60
2022/09/02 05:59:54;;;;;;;5.07;3.90;;;;;;;15.11;92.89;95588.91;5030108;28;20076;-60
2022/09/02 06:02:21;;;;;;;4.45;4.10;;;;;;;15.12;93.30;95585.25;5030516;28;20022;-60
2022/09/02 06:04:50;;;;;;;3.75;3.55;;;;;;;15.12;93.36;95579.97;5021782;28;20053;-60
2022/09/02 06:07:17;;;;;;;4.38;4.07;;;;;;;15.12;93.65;95582.59;5027144;28;20029;-60
2022/09/02 06:09:43;;;;;;;4.63;4.25;;;;;;;15.12;93.45;95582.59;5023667;28;20048;-61
2022/09/02 06:12:10;;;;;;;4.20;3.90;;;;;;;15.09;93.31;95580.31;5029214;28;20106;-61
2022/09/02 06:14:36;;;;;;;5.88;4.10;;;;;;;15.09;93.30;95577.66;5020198;28;20099;-61
2022/09/02 06:17:03;;;;;;;3.78;3.47;;;;;;;15.08;93.72;95586.59;5011802;28;20493;-61
2022/09/02 06:19:29;;;;;;;4.03;3.83;;;;;;;15.04;94.27;95574.69;5024371;28;20377;-61
2022/09/02 06:21:55;;;;;;;5.53;3.97;;;;;;;15.00;95.75;95574.22;5030157;28;20040;-62
2022/09/02 06:24:21;;;;;;;3.92;3.72;;;;;;;14.98;94.52;95576.22;5027656;28;20037;-60
2022/09/02 06:26:46;;;;;;;4.28;3.88;;;;;;;14.99;94.48;95583.16;5024556;28;20033;-61
2022/09/02 06:29:12;;;;;;;6.53;3.72;;;;;;;14.96;95.02;95583.50;5024580;28;20057;-61
2022/09/02 06:31:43;;;;;;;4.13;3.83;;;;;;;14.95;96.15;95583.69;5023479;28;20022;-61
2022/09/02 06:34:12;;;;;;;5.57;4.55;;;;;;;14.97;97.58;95584.34;5021620;28;20101;-61
2022/09/02 06:36:39;;;;;;;4.30;4.00;;;;;;;14.98;96.94;95580.69;5021737;28;20160;-60
2022/09/02 06:39:04;;;;;;;4.38;4.07;;;;;;;15.01;97.04;95585.66;5024933;28;20028;-61
2022/09/02 06:41:32;;;;;;;4.88;4.47;;;;;;;15.14;96.97;95582.44;5026773;28;20029;-61
2022/09/02 06:44:01;;;;;;;5.00;4.45;;;;;;;15.38;96.27;95572.72;5028471;28;20033;-61
2022/09/02 06:46:32;;;;;;;4.32;3.92;;;;;;;15.49;95.11;95579.44;5022874;28;20428;-61
2022/09/02 06:48:58;;;;;;;6.07;4.00;;;;;;;15.53;95.08;95570.97;5027257;28;20556;-61
2022/09/02 06:51:26;;;;;;;5.95;4.15;;;;;;;15.78;93.82;95577.91;5024780;28;20091;-61
2022/09/02 06:53:52;;;;;;;6.75;3.92;;;;;;;15.94;92.04;95572.50;5027611;28;20503;-61
2022/09/02 06:56:17;;;;;;;7.38;4.03;;;;;;;16.00;90.54;95573.63;5020994;28;20080;-61
2022/09/02 06:58:44;;;;;;;5.70;4.55;;;;;;;16.21;89.95;95580.91;5020766;28;20171;-61
2022/09/02 07:01:20;;;;;;;6.80;4.60;;;;;;;16.64;88.45;95584.81;5025829;28;20030;-61
2022/09/02 07:06:35;;;;;;;3.90;3.45;;;;;;;17.85;82.35;95586.28;5020000;28;20083;-61
2022/09/02 07:09:00;;;;;;;4.90;4.03;;;;;;;17.94;79.06;95576.34;5008448;28;20025;-62
2022/09/02 07:11:26;;;;;;;5.13;4.72;;;;;;;17.95;78.59;95584.13;5022644;28;20029;-61
2022/09/02 07:13:52;;;;;;;4.25;3.95;;;;;;;17.92;78.40;95586.34;5023871;28;20079;-61
2022/09/02 07:16:18;;;;;;;3.28;3.08;;;;;;;18.04;78.15;95588.34;5019764;28;20029;-61
2022/09/02 07:18:43;;;;;;;4.28;3.20;;;;;;;18.32;76.67;95592.88;5025877;28;20473;-62
2022/09/02 07:21:10;;;;;;;4.78;3.13;;;;;;;18.83;75.57;95582.13;5027469;28;20029;-61
2022/09/02 07:23:36;;;;;;;3.67;3.30;;;;;;;19.04;74.29;95573.25;5019124;28;20026;-62
2022/09/02 07:26:01;;;;;;;3.97;3.20;;;;;;;18.66;72.87;95584.28;5020801;28;20034;-62
2022/09/02 07:28:27;;;;;;;3.45;3.15;;;;;;;18.40;76.25;95578.59;5027649;28;20401;-61
2022/09/02 07:30:54;;;;;;;3.60;3.40;;;;;;;18.60;76.37;95575.22;5024767;28;20413;-61
2022/09/02 07:33:21;;;;;;;4.88;3.85;;;;;;;18.70;75.91;95570.38;5009497;28;20374;-61
2022/09/02 07:35:47;;;;;;;4.53;3.22;;;;;;;18.59;72.58;95571.72;5025782;28;20097;-59
2022/09/02 07:38:13;;;;;;;3.15;2.95;;;;;;;18.90;71.05;95567.81;5025594;28;20040;-59
2022/09/02 07:40:41;;;;;;;7.63;3.13;;;;;;;19.08;68.73;95569.16;5020206;28;20021;-58
2022/09/02 07:43:09;;;;;;;3.00;2.90;;;;;;;19.58;65.53;95578.78;5019844;28;20021;-59
2022/09/02 07:45:36;;;;;;;3.55;2.97;;;;;;;19.97;63.41;95577.22;5024347;28;20044;-59
2022/09/02 07:48:06;;;;;;;4.50;3.28;;;;;;;19.87;62.38;95571.44;5020277;28;20107;-59
2022/09/02 07:50:33;;;;;;;4.13;3.30;;;;;;;19.92;64.72;95568.19;5018741;28;20053;-60
2022/09/02 07:52:59;;;;;;;3.33;3.13;;;;;;;20.16;63.04;95577.44;5019340;28;20567;-59
2022/09/02 07:55:25;;;;;;;3.22;3.03;;;;;;;20.28;61.47;95575.81;5021865;28;20112;-57
2022/09/02 07:57:53;;;;;;;3.13;2.92;;;;;;;20.29;60.73;95577.47;5016015;28;20471;-57
2022/09/02 08:00:21;;;;;;;4.78;3.03;;;;;;;20.50;60.96;95566.75;5017113;28;20041;-58
2022/09/02 08:02:47;;;;;;;3.00;2.72;;;;;;;20.64;62.24;95570.22;5021333;28;20064;-59
2022/09/02 08:05:14;;;;;;;2.92;2.72;;;;;;;20.84;59.13;95570.22;5017788;28;20036;-57
2022/09/02 08:07:40;;;;;;;2.80;2.70;;;;;;;21.29;59.15;95575.63;5019752;28;20053;-57
2022/09/02 08:10:09;;;;;;;8.68;3.20;;;;;;;21.93;55.86;95576.75;5019916;28;20065;-57
2022/09/02 08:12:35;;;;;;;3.20;3.00;;;;;;;22.39;54.11;95585.47;5023085;28;20017;-57
2022/09/02 08:15:01;;;;;;;3.40;3.15;;;;;;;22.46;53.14;95584.41;5022650;28;20086;-57
2022/09/02 08:17:26;;;;;;;4.38;3.05;;;;;;;22.65;55.31;95578.25;5023958;28;20025;-57
2022/09/02 08:19:52;;;;;;;2.88;2.67;;;;;;;23.10;52.06;95575.34;5021001;28;20021;-57
2022/09/02 08:22:17;;;;;;;2.85;2.65;;;;;;;23.44;50.15;95574.97;5020930;28;20026;-57
2022/09/02 08:24:43;;;;;;;4.55;2.65;;;;;;;23.29;50.93;95565.41;5017686;28;20032;-57
2022/09/02 08:27:08;;;;;;;8.32;2.80;;;;;;;23.44;47.71;95561.53;5019364;28;20021;-57
2022/09/02 08:29:34;;;;;;;2.80;2.60;;;;;;;23.43;51.44;95563.38;5019581;28;20026;-57
2022/09/02 08:32:00;;;;;;;3.28;2.70;;;;;;;23.74;51.77;95566.88;5019399;28;20030;-57
2022/09/02 08:34:25;;;;;;;2.65;2.40;;;;;;;24.05;52.02;95574.16;5020510;28;20030;-57
2022/09/02 08:36:51;;;;;;;2.92;2.67;;;;;;;23.81;51.67;95574.06;5017073;28;20040;-57
2022/09/02 08:39:16;;;;;;;4.10;2.80;;;;;;;23.99;51.25;95573.16;5023434;28;20456;-57
2022/09/02 08:42:01;;;;;;;2.92;2.72;;;;;;;23.56;47.85;95578.50;5019870;28;20362;-57
2022/09/02 08:44:27;;;;;;;3.50;2.78;;;;;;;23.12;49.56;95575.09;5018657;28;20124;-57
2022/09/02 08:46:58;;;;;;;3.20;2.72;;;;;;;23.18;50.70;95583.06;5021414;28;20053;-57
2022/09/02 08:49:30;;;;;;;3.00;2.80;;;;;;;23.26;49.16;95573.09;5019002;28;20451;-57
2022/09/02 08:52:01;;;;;;;3.05;2.50;;;;;;;23.67;47.66;95573.41;5022974;28;20029;-57
2022/09/02 08:54:41;;;;;;;2.42;2.30;;;;;;;23.55;48.39;95570.69;5020309;28;20041;-57
2022/09/02 08:57:08;;;;;;;2.65;2.55;;;;;;;23.42;48.48;95569.81;5021563;28;20564;-57
2022/09/02 08:59:36;;;;;;;2.45;2.35;;;;;;;23.31;48.92;95567.88;5020050;28;20021;-57
2022/09/02 09:02:15;;;;;;;2.47;2.38;;;;;;;23.49;48.25;95566.19;5021627;28;20064;-57
2022/09/02 09:05:04;;;;;;;3.40;2.50;;;;;;;23.48;48.07;95567.25;5024752;28;20029;-57
2022/09/02 09:07:45;;;;;;;2.85;2.65;;;;;;;23.27;48.77;95556.78;5017888;28;20037;-57
2022/09/02 09:10:13;;;;;;;2.83;2.63;;;;;;;23.38;48.97;95565.09;5017996;28;20025;-57
2022/09/02 09:12:39;;;;;;;4.57;2.42;;;;;;;23.21;49.76;95560.34;5019815;28;20409;-56
2022/09/02 09:15:11;;;;;;;3.00;2.80;;;;;;;23.16;47.23;95558.31;5020315;28;20033;-57
2022/09/02 09:17:56;;;;;;;2.90;2.70;;;;;;;22.99;49.97;95562.63;5023155;28;20259;-57
2022/09/02 09:20:42;;;;;;;3.22;2.90;;;;;;;22.92;47.63;95561.91;5020150;28;20124;-57
2022/09/02 09:23:37;;;;;;;2.30;2.20;;;;;;;22.83;47.60;95559.50;5020373;28;20481;-57
2022/09/02 09:26:11;;;;;;;2.90;2.70;;;;;;;22.73;48.42;95553.84;5023448;28;20033;-57
2022/09/02 09:28:40;;;;;;;4.10;3.10;;;;;;;22.98;47.79;95558.31;5018576;28;20026;-57
2022/09/02 09:31:10;;;;;;;3.13;2.83;;;;;;;22.94;48.56;95559.81;5024961;28;20029;-58
2022/09/02 09:33:35;;;;;;;3.03;2.83;;;;;;;22.94;47.93;95559.81;5016615;28;20420;-57
2022/09/02 09:36:04;;;;;;;3.03;2.83;;;;;;;23.24;48.20;95557.19;5020976;28;20026;-57
2022/09/02 09:38:33;;;;;;;2.90;2.70;;;;;;;23.48;48.07;95559.19;5018442;28;20040;-57
2022/09/02 09:41:13;;;;;;;3.35;3.10;;;;;;;23.73;46.04;95565.25;5018157;28;20098;-57
2022/09/02 09:43:38;;;;;;;5.15;3.35;;;;;;;23.88;44.92;95556.78;5023536;28;20066;-57
2022/09/02 09:46:20;;;;;;;4.72;2.90;;;;;;;23.19;47.02;95562.41;5022136;28;20037;-58
2022/09/02 09:48:50;;;;;;;3.22;2.90;;;;;;;23.16;47.23;95552.09;4980457;28;20041;-57
2022/09/02 09:51:16;;;;;;;5.10;3.10;;;;;;;23.00;48.74;95558.91;4985905;28;20140;-57
2022/09/02 09:53:42;;;;;;;5.57;3.17;;;;;;;23.36;48.77;95554.59;4982638;28;20569;-57
2022/09/02 09:56:13;;;;;;;3.65;3.25;;;;;;;24.02;48.34;95545.84;4984432;28;20038;-57
2022/09/02 09:58:38;;;;;;;3.33;3.00;;;;;;;24.16;46.74;95543.75;4978302;28;20545;-57
2022/09/02 10:01:31;;;;;;;2.95;2.75;;;;;;;24.22;45.09;95542.84;4978712;28;20042;-57
2022/09/02 10:04:24;;;;;;;2.72;2.55;;;;;;;24.35;45.88;95546.34;4984555;28;20549;-57
2022/09/02 10:06:49;;;;;;;5.70;2.67;;;;;;;24.29;44.30;95538.16;4981676;28;20041;-57
2022/09/02 10:09:17;;;;;;;3.47;3.20;;;;;;;24.26;45.06;95533.25;4981553;28;20018;-57
2022/09/02 10:11:55;;;;;;;2.92;2.72;;;;;;;24.09;45.63;95537.66;4984600;28;20097;-56
2022/09/02 10:14:21;;;;;;;4.65;2.78;;;;;;;24.40;45.40;95531.16;4979922;28;20110;-56
2022/09/02 10:17:05;;;;;;;3.20;3.00;;;;;;;24.35;45.60;95524.84;4981688;28;20114;-56
2022/09/02 10:19:48;;;;;;;2.97;2.70;;;;;;;24.27;46.04;95531.38;4980294;28;20043;-57
2022/09/02 10:22:39;;;;;;;2.90;2.70;;;;;;;24.60;45.76;95528.09;4981979;28;20054;-57
2022/09/02 10:25:41;;;;;;;5.32;2.80;;;;;;;24.96;46.18;95519.19;4976218;28;20049;-60
2022/09/02 10:28:31;;;;;;;3.92;2.85;;;;;;;25.22;46.79;95511.63;4926835;29;20028;-58
2022/09/02 10:31:02;;;;;;;2.92;2.70;;;;;;;25.68;44.20;95509.03;4980243;28;20042;-57
2022/09/02 10:33:56;;;;;;;4.90;2.58;;;;;;;25.58;43.83;95505.06;4989459;28;20109;-57
2022/09/02 10:36:33;;;;;;;3.33;2.50;;;;;;;26.18;44.59;95496.63;4984668;28;20108;-55
2022/09/02 10:39:22;;;;;;;3.78;2.80;;;;;;;26.11;45.27;95498.66;4984122;28;20037;-55
2022/09/02 10:41:48;;;;;;;2.63;2.42;;;;;;;26.25;45.08;95497.31;4959723;28;20050;-53
2022/09/02 10:44:26;;;;;;;2.90;2.63;;;;;;;26.18;43.15;95491.25;4986145;28;20391;-56
2022/09/02 10:47:13;;;;;;;3.92;2.47;;;;;;;26.25;41.93;95483.00;4993336;28;20472;-55
2022/09/02 10:50:02;;;;;;;2.35;2.25;;;;;;;26.48;40.24;95473.91;5026547;28;20032;-54
2022/09/02 10:52:30;;;;;;;3.60;2.38;;;;;;;26.77;40.24;95478.34;5018789;28;20455;-56
2022/09/02 10:55:16;;;;;;;2.60;2.47;;;;;;;26.95;38.15;95474.53;5026352;28;20144;-56
2022/09/02 10:57:51;;;;;;;3.08;2.20;;;;;;;26.98;37.24;95471.31;5007951;28;20510;-57
2022/09/02 11:00:21;;;;;;;2.35;2.25;;;;;;;27.32;35.56;95465.75;5017320;28;20112;-56
2022/09/02 11:02:59;;;;;;;3.10;2.50;;;;;;;26.00;39.48;95460.75;5024719;28;20092;-57
2022/09/02 11:05:37;;;;;;;2.78;2.63;;;;;;;25.62;42.04;95462.28;5023506;28;20555;-57
2022/09/02 11:08:06;;;;;;;7.57;2.97;;;;;;;25.63;42.83;95463.91;5021773;28;20370;-56
2022/09/02 11:10:40;;;;;;;5.10;2.38;;;;;;;26.24;40.65;95463.31;5018095;28;20125;-56
2022/09/02 11:13:13;;;;;;;2.67;2.47;;;;;;;26.75;40.13;95456.97;5027085;28;20026;-57
2022/09/02 11:15:56;;;;;;;2.90;2.70;;;;;;;27.38;38.80;95448.53;5002565;28;20032;-57
2022/09/02 11:18:31;;;;;;;4.50;2.28;;;;;;;27.82;37.04;95449.50;5017971;28;20022;-55
2022/09/02 11:21:06;;;;;;;;;;;;;;;28.15;36.51;95434.03;5024218;28;20030;-56
2022/09/02 11:23:57;;;;;;;2.50;2.30;;;;;;;28.22;36.78;95444.66;5009712;28;19953;-55
2022/09/02 11:26:30;;;;;;;2.53;2.33;;;;;;;28.99;34.21;95438.84;5009414;28;20073;-54
2022/09/02 11:29:02;;;;;;;8.48;2.63;;;;;;;29.06;35.07;95436.69;5009648;28;20117;-57
2022/09/02 11:31:41;;;;;;;2.58;2.28;;;;;;;29.42;33.82;95436.03;5011165;28;20525;-57
2022/09/02 11:34:18;;;;;;;2.45;2.30;;;;;;;29.87;33.28;95447.16;4993227;28;20037;-55
2022/09/02 11:36:44;;;;;;;2.67;2.47;;;;;;;29.72;33.23;95456.13;5011161;28;20033;-57
2022/09/02 11:39:45;;;;;;;2.88;2.65;;;;;;;29.23;32.96;95463.59;5025940;28;20029;-57
2022/09/02 11:42:11;;;;;;;2.65;2.35;;;;;;;28.73;32.93;95463.09;5023934;28;20029;-54
2022/09/02 11:45:06;;;;;;;2.67;2.47;;;;;;;27.28;37.42;95461.91;5024257;28;20439;-57